sensor_id;sensor_type;location;lat;lon;timestamp;P1;durP1;ratioP1;P2;durP2;ratioP2
57023;SDS011;42916;54.346;18.562;2023-05-07T00:00:12;9.80;;;5.30;;
57023;SDS011;42916;54.346;18.562;2023-05-07T00:03:02;6.70;;;4.60;;
57023;SDS011;42916;54.346;18.562;2023-05-07T00:05:29;11.80;;;5.20;;
57023;SDS011;42916;54.346;18.562;2023-05-07T00:07:56;10.20;;;5.40;;
57023;SDS011;42916;54.346;18.562;2023-05-07T00:10:22;8.50;;;5.10;;
57023;SDS011;42916;54.346;18.562;2023-05-07T00:12:49;7.70;;;4.40;;
57023;SDS011;42916;54.346;18.562;2023-05-07T00:15:16;9.20;;;5.30;;
57023;SDS011;42916;54.346;18.562;2023-05-07T00:17:42;7.70;;;5.10;;
57023;SDS011;42916;54.346;18.562;2023-05-07T00:20:09;12.00;;;5.00;;
57023;SDS011;42916;54.346;18.562;2023-05-07T00:22:36;9.40;;;5.10;;
57023;SDS011;42916;54.346;18.562;2023-05-07T00:25:04;8.40;;;5.00;;
57023;SDS011;42916;54.346;18.562;2023-05-07T00:27:32;11.70;;;5.20;;
57023;SDS011;42916;54.346;18.562;2023-05-07T00:29:58;8.20;;;4.60;;
57023;SDS011;42916;54.346;18.562;2023-05-07T00:32:25;11.00;;;5.10;;
57023;SDS011;42916;54.346;18.562;2023-05-07T00:34:52;7.70;;;4.90;;
57023;SDS011;42916;54.346;18.562;2023-05-07T00:37:19;10.80;;;4.90;;
57023;SDS011;42916;54.346;18.562;2023-05-07T00:39:45;10.70;;;5.10;;
57023;SDS011;42916;54.346;18.562;2023-05-07T00:42:12;9.70;;;5.40;;
57023;SDS011;42916;54.346;18.562;2023-05-07T00:44:39;7.00;;;4.90;;
57023;SDS011;42916;54.346;18.562;2023-05-07T00:47:06;9.90;;;5.00;;
57023;SDS011;42916;54.346;18.562;2023-05-07T00:49:37;10.20;;;5.80;;
57023;SDS011;42916;54.346;18.562;2023-05-07T00:52:07;9.00;;;4.90;;
57023;SDS011;42916;54.346;18.562;2023-05-07T00:54:37;9.40;;;5.10;;
57023;SDS011;42916;54.346;18.562;2023-05-07T00:57:04;7.00;;;4.70;;
57023;SDS011;42916;54.346;18.562;2023-05-07T00:59:32;8.70;;;5.20;;
57023;SDS011;42916;54.346;18.562;2023-05-07T01:01:59;9.20;;;5.40;;
57023;SDS011;42916;54.346;18.562;2023-05-07T01:04:26;12.00;;;5.80;;
57023;SDS011;42916;54.346;18.562;2023-05-07T01:06:56;13.20;;;5.30;;
57023;SDS011;42916;54.346;18.562;2023-05-07T01:09:24;13.90;;;6.30;;
57023;SDS011;42916;54.346;18.562;2023-05-07T01:11:52;10.30;;;5.60;;
57023;SDS011;42916;54.346;18.562;2023-05-07T01:14:21;9.80;;;5.90;;
57023;SDS011;42916;54.346;18.562;2023-05-07T01:16:48;10.30;;;5.30;;
57023;SDS011;42916;54.346;18.562;2023-05-07T01:19:18;13.80;;;5.50;;
57023;SDS011;42916;54.346;18.562;2023-05-07T01:21:46;9.60;;;5.70;;
57023;SDS011;42916;54.346;18.562;2023-05-07T01:24:15;10.40;;;5.80;;
57023;SDS011;42916;54.346;18.562;2023-05-07T01:26:43;9.80;;;5.50;;
57023;SDS011;42916;54.346;18.562;2023-05-07T01:29:12;10.00;;;6.00;;
57023;SDS011;42916;54.346;18.562;2023-05-07T01:31:40;12.50;;;6.00;;
57023;SDS011;42916;54.346;18.562;2023-05-07T01:34:08;12.10;;;6.20;;
57023;SDS011;42916;54.346;18.562;2023-05-07T01:36:38;12.20;;;6.00;;
57023;SDS011;42916;54.346;18.562;2023-05-07T01:39:06;10.60;;;5.90;;
57023;SDS011;42916;54.346;18.562;2023-05-07T01:41:34;14.80;;;6.10;;
57023;SDS011;42916;54.346;18.562;2023-05-07T01:44:02;11.40;;;6.60;;
57023;SDS011;42916;54.346;18.562;2023-05-07T01:46:30;12.00;;;6.40;;
57023;SDS011;42916;54.346;18.562;2023-05-07T01:48:58;12.40;;;6.10;;
57023;SDS011;42916;54.346;18.562;2023-05-07T01:51:25;11.40;;;5.80;;
57023;SDS011;42916;54.346;18.562;2023-05-07T01:53:53;9.80;;;6.10;;
57023;SDS011;42916;54.346;18.562;2023-05-07T01:56:20;12.20;;;6.00;;
57023;SDS011;42916;54.346;18.562;2023-05-07T01:58:48;11.50;;;5.90;;
57023;SDS011;42916;54.346;18.562;2023-05-07T02:01:17;11.70;;;6.20;;
57023;SDS011;42916;54.346;18.562;2023-05-07T02:03:44;13.90;;;6.00;;
57023;SDS011;42916;54.346;18.562;2023-05-07T02:06:16;12.60;;;5.60;;
57023;SDS011;42916;54.346;18.562;2023-05-07T02:08:42;15.30;;;6.10;;
57023;SDS011;42916;54.346;18.562;2023-05-07T02:11:10;12.10;;;6.20;;
57023;SDS011;42916;54.346;18.562;2023-05-07T02:13:37;11.00;;;6.10;;
57023;SDS011;42916;54.346;18.562;2023-05-07T02:16:04;12.20;;;6.30;;
57023;SDS011;42916;54.346;18.562;2023-05-07T02:18:31;11.40;;;5.80;;
57023;SDS011;42916;54.346;18.562;2023-05-07T02:20:58;10.60;;;6.20;;
57023;SDS011;42916;54.346;18.562;2023-05-07T02:23:25;8.60;;;5.30;;
57023;SDS011;42916;54.346;18.562;2023-05-07T02:25:52;13.40;;;5.80;;
57023;SDS011;42916;54.346;18.562;2023-05-07T02:28:19;13.10;;;6.80;;
57023;SDS011;42916;54.346;18.562;2023-05-07T02:30:56;13.90;;;6.80;;
57023;SDS011;42916;54.346;18.562;2023-05-07T02:33:25;11.30;;;6.70;;
57023;SDS011;42916;54.346;18.562;2023-05-07T02:35:51;12.40;;;6.60;;
57023;SDS011;42916;54.346;18.562;2023-05-07T02:38:18;9.80;;;6.20;;
57023;SDS011;42916;54.346;18.562;2023-05-07T02:40:45;11.60;;;6.50;;
57023;SDS011;42916;54.346;18.562;2023-05-07T02:43:12;10.90;;;5.80;;
57023;SDS011;42916;54.346;18.562;2023-05-07T02:45:41;12.50;;;6.30;;
57023;SDS011;42916;54.346;18.562;2023-05-07T02:48:08;13.60;;;6.80;;
57023;SDS011;42916;54.346;18.562;2023-05-07T02:50:34;13.50;;;7.10;;
57023;SDS011;42916;54.346;18.562;2023-05-07T02:53:01;15.20;;;7.20;;
57023;SDS011;42916;54.346;18.562;2023-05-07T02:55:29;14.10;;;7.00;;
57023;SDS011;42916;54.346;18.562;2023-05-07T02:57:55;13.80;;;7.20;;
57023;SDS011;42916;54.346;18.562;2023-05-07T03:00:23;12.20;;;7.30;;
57023;SDS011;42916;54.346;18.562;2023-05-07T03:03:01;12.90;;;6.80;;
57023;SDS011;42916;54.346;18.562;2023-05-07T03:05:28;15.10;;;7.50;;
57023;SDS011;42916;54.346;18.562;2023-05-07T03:07:55;14.40;;;7.00;;
57023;SDS011;42916;54.346;18.562;2023-05-07T03:10:21;12.10;;;7.30;;
57023;SDS011;42916;54.346;18.562;2023-05-07T03:12:48;11.80;;;7.70;;
57023;SDS011;42916;54.346;18.562;2023-05-07T03:15:16;14.60;;;7.10;;
57023;SDS011;42916;54.346;18.562;2023-05-07T03:17:43;15.10;;;7.10;;
57023;SDS011;42916;54.346;18.562;2023-05-07T03:20:10;15.40;;;6.80;;
57023;SDS011;42916;54.346;18.562;2023-05-07T03:22:37;11.90;;;7.10;;
57023;SDS011;42916;54.346;18.562;2023-05-07T03:25:04;12.30;;;6.70;;
57023;SDS011;42916;54.346;18.562;2023-05-07T03:27:33;14.30;;;7.50;;
57023;SDS011;42916;54.346;18.562;2023-05-07T03:29:59;15.60;;;7.80;;
57023;SDS011;42916;54.346;18.562;2023-05-07T03:32:27;14.90;;;8.10;;
57023;SDS011;42916;54.346;18.562;2023-05-07T03:34:54;17.10;;;8.50;;
57023;SDS011;42916;54.346;18.562;2023-05-07T03:37:22;11.70;;;6.70;;
57023;SDS011;42916;54.346;18.562;2023-05-07T03:39:49;17.20;;;7.50;;
57023;SDS011;42916;54.346;18.562;2023-05-07T03:42:16;12.50;;;7.10;;
57023;SDS011;42916;54.346;18.562;2023-05-07T03:44:43;12.10;;;7.10;;
57023;SDS011;42916;54.346;18.562;2023-05-07T03:47:10;16.10;;;7.50;;
57023;SDS011;42916;54.346;18.562;2023-05-07T03:49:37;12.70;;;7.00;;
57023;SDS011;42916;54.346;18.562;2023-05-07T03:52:04;13.00;;;7.60;;
57023;SDS011;42916;54.346;18.562;2023-05-07T03:54:31;15.40;;;7.40;;
57023;SDS011;42916;54.346;18.562;2023-05-07T03:56:58;17.30;;;7.10;;
57023;SDS011;42916;54.346;18.562;2023-05-07T03:59:26;14.10;;;7.30;;
57023;SDS011;42916;54.346;18.562;2023-05-07T04:01:53;18.40;;;7.60;;
57023;SDS011;42916;54.346;18.562;2023-05-07T04:04:21;15.90;;;8.20;;
57023;SDS011;42916;54.346;18.562;2023-05-07T04:06:48;19.10;;;7.60;;
57023;SDS011;42916;54.346;18.562;2023-05-07T04:09:16;15.10;;;7.70;;
57023;SDS011;42916;54.346;18.562;2023-05-07T04:11:42;15.20;;;7.50;;
57023;SDS011;42916;54.346;18.562;2023-05-07T04:14:10;13.00;;;7.40;;
57023;SDS011;42916;54.346;18.562;2023-05-07T04:16:37;16.20;;;7.30;;
57023;SDS011;42916;54.346;18.562;2023-05-07T04:19:04;15.80;;;7.50;;
57023;SDS011;42916;54.346;18.562;2023-05-07T04:21:32;14.40;;;7.30;;
57023;SDS011;42916;54.346;18.562;2023-05-07T04:23:59;14.80;;;8.20;;
57023;SDS011;42916;54.346;18.562;2023-05-07T04:26:26;16.70;;;8.20;;
57023;SDS011;42916;54.346;18.562;2023-05-07T04:28:54;15.50;;;7.80;;
57023;SDS011;42916;54.346;18.562;2023-05-07T04:31:21;14.50;;;7.30;;
57023;SDS011;42916;54.346;18.562;2023-05-07T04:33:51;15.60;;;7.90;;
57023;SDS011;42916;54.346;18.562;2023-05-07T04:36:18;21.90;;;7.90;;
57023;SDS011;42916;54.346;18.562;2023-05-07T04:38:52;15.60;;;7.50;;
57023;SDS011;42916;54.346;18.562;2023-05-07T04:41:19;15.00;;;7.90;;
57023;SDS011;42916;54.346;18.562;2023-05-07T04:43:46;15.60;;;8.00;;
57023;SDS011;42916;54.346;18.562;2023-05-07T04:46:13;14.40;;;7.60;;
57023;SDS011;42916;54.346;18.562;2023-05-07T04:48:40;16.80;;;8.60;;
57023;SDS011;42916;54.346;18.562;2023-05-07T04:51:07;13.70;;;8.10;;
57023;SDS011;42916;54.346;18.562;2023-05-07T04:53:33;15.70;;;7.30;;
57023;SDS011;42916;54.346;18.562;2023-05-07T04:56:00;14.50;;;8.20;;
57023;SDS011;42916;54.346;18.562;2023-05-07T04:58:32;12.30;;;7.00;;
57023;SDS011;42916;54.346;18.562;2023-05-07T05:00:59;12.30;;;6.70;;
57023;SDS011;42916;54.346;18.562;2023-05-07T05:03:26;12.10;;;6.90;;
57023;SDS011;42916;54.346;18.562;2023-05-07T05:05:53;12.80;;;6.90;;
57023;SDS011;42916;54.346;18.562;2023-05-07T05:08:21;12.50;;;6.30;;
57023;SDS011;42916;54.346;18.562;2023-05-07T05:10:47;8.50;;;4.60;;
57023;SDS011;42916;54.346;18.562;2023-05-07T05:13:16;11.10;;;4.30;;
57023;SDS011;42916;54.346;18.562;2023-05-07T05:15:43;8.90;;;4.40;;
57023;SDS011;42916;54.346;18.562;2023-05-07T05:18:10;6.10;;;4.10;;
57023;SDS011;42916;54.346;18.562;2023-05-07T05:20:37;7.70;;;3.80;;
57023;SDS011;42916;54.346;18.562;2023-05-07T05:23:04;6.30;;;3.60;;
57023;SDS011;42916;54.346;18.562;2023-05-07T05:25:33;8.70;;;4.20;;
57023;SDS011;42916;54.346;18.562;2023-05-07T05:28:00;6.70;;;3.90;;
57023;SDS011;42916;54.346;18.562;2023-05-07T05:30:28;5.80;;;3.80;;
57023;SDS011;42916;54.346;18.562;2023-05-07T05:32:55;6.20;;;3.80;;
57023;SDS011;42916;54.346;18.562;2023-05-07T05:35:21;8.10;;;3.80;;
57023;SDS011;42916;54.346;18.562;2023-05-07T05:37:49;5.70;;;3.50;;
57023;SDS011;42916;54.346;18.562;2023-05-07T05:40:16;6.90;;;3.70;;
57023;SDS011;42916;54.346;18.562;2023-05-07T05:42:43;5.60;;;3.40;;
57023;SDS011;42916;54.346;18.562;2023-05-07T05:45:11;6.20;;;3.20;;
57023;SDS011;42916;54.346;18.562;2023-05-07T05:47:39;4.20;;;3.00;;
57023;SDS011;42916;54.346;18.562;2023-05-07T05:50:06;9.80;;;3.70;;
57023;SDS011;42916;54.346;18.562;2023-05-07T05:52:34;7.40;;;3.30;;
57023;SDS011;42916;54.346;18.562;2023-05-07T05:55:01;10.70;;;3.40;;
57023;SDS011;42916;54.346;18.562;2023-05-07T05:57:28;5.00;;;3.00;;
57023;SDS011;42916;54.346;18.562;2023-05-07T05:59:55;8.20;;;3.40;;
57023;SDS011;42916;54.346;18.562;2023-05-07T06:02:23;6.00;;;3.40;;
57023;SDS011;42916;54.346;18.562;2023-05-07T06:04:51;6.20;;;3.30;;
57023;SDS011;42916;54.346;18.562;2023-05-07T06:07:19;6.30;;;3.10;;
57023;SDS011;42916;54.346;18.562;2023-05-07T06:09:46;5.20;;;3.20;;
57023;SDS011;42916;54.346;18.562;2023-05-07T06:12:13;5.20;;;3.40;;
57023;SDS011;42916;54.346;18.562;2023-05-07T06:14:40;5.80;;;3.00;;
57023;SDS011;42916;54.346;18.562;2023-05-07T06:17:09;4.40;;;3.30;;
57023;SDS011;42916;54.346;18.562;2023-05-07T06:19:36;7.60;;;3.40;;
57023;SDS011;42916;54.346;18.562;2023-05-07T06:22:03;5.60;;;3.00;;
57023;SDS011;42916;54.346;18.562;2023-05-07T06:24:30;4.20;;;3.10;;
57023;SDS011;42916;54.346;18.562;2023-05-07T06:26:57;6.30;;;2.80;;
57023;SDS011;42916;54.346;18.562;2023-05-07T06:29:26;5.90;;;3.00;;
57023;SDS011;42916;54.346;18.562;2023-05-07T06:31:52;9.00;;;3.30;;
57023;SDS011;42916;54.346;18.562;2023-05-07T06:34:21;6.00;;;3.40;;
57023;SDS011;42916;54.346;18.562;2023-05-07T06:36:48;4.10;;;2.80;;
57023;SDS011;42916;54.346;18.562;2023-05-07T06:39:23;3.80;;;2.80;;
57023;SDS011;42916;54.346;18.562;2023-05-07T06:41:52;3.20;;;2.50;;
57023;SDS011;42916;54.346;18.562;2023-05-07T06:44:24;6.80;;;3.10;;
57023;SDS011;42916;54.346;18.562;2023-05-07T06:47:00;4.90;;;3.00;;
57023;SDS011;42916;54.346;18.562;2023-05-07T06:49:27;6.30;;;3.00;;
57023;SDS011;42916;54.346;18.562;2023-05-07T06:51:54;5.20;;;3.00;;
57023;SDS011;42916;54.346;18.562;2023-05-07T06:54:23;4.20;;;2.60;;
57023;SDS011;42916;54.346;18.562;2023-05-07T06:56:50;3.10;;;2.40;;
57023;SDS011;42916;54.346;18.562;2023-05-07T06:59:17;5.80;;;2.70;;
57023;SDS011;42916;54.346;18.562;2023-05-07T07:01:46;4.30;;;2.70;;
57023;SDS011;42916;54.346;18.562;2023-05-07T07:04:13;3.80;;;2.90;;
57023;SDS011;42916;54.346;18.562;2023-05-07T07:06:40;9.00;;;3.20;;
57023;SDS011;42916;54.346;18.562;2023-05-07T07:09:10;3.50;;;2.70;;
57023;SDS011;42916;54.346;18.562;2023-05-07T07:11:37;3.50;;;2.60;;
57023;SDS011;42916;54.346;18.562;2023-05-07T07:14:04;4.20;;;2.70;;
57023;SDS011;42916;54.346;18.562;2023-05-07T07:16:34;5.20;;;2.80;;
57023;SDS011;42916;54.346;18.562;2023-05-07T07:19:01;4.50;;;2.70;;
57023;SDS011;42916;54.346;18.562;2023-05-07T07:21:28;4.50;;;2.40;;
57023;SDS011;42916;54.346;18.562;2023-05-07T07:23:56;2.60;;;2.20;;
57023;SDS011;42916;54.346;18.562;2023-05-07T07:26:23;3.10;;;2.30;;
57023;SDS011;42916;54.346;18.562;2023-05-07T07:28:50;6.20;;;2.70;;
57023;SDS011;42916;54.346;18.562;2023-05-07T07:31:19;3.90;;;2.50;;
57023;SDS011;42916;54.346;18.562;2023-05-07T07:33:46;3.50;;;2.60;;
57023;SDS011;42916;54.346;18.562;2023-05-07T07:36:13;5.50;;;2.80;;
57023;SDS011;42916;54.346;18.562;2023-05-07T07:38:41;2.90;;;2.40;;
57023;SDS011;42916;54.346;18.562;2023-05-07T07:41:08;3.80;;;2.90;;
57023;SDS011;42916;54.346;18.562;2023-05-07T07:43:36;6.80;;;3.30;;
57023;SDS011;42916;54.346;18.562;2023-05-07T07:46:03;4.20;;;3.00;;
57023;SDS011;42916;54.346;18.562;2023-05-07T07:48:30;4.70;;;2.40;;
57023;SDS011;42916;54.346;18.562;2023-05-07T07:50:58;4.70;;;2.40;;
57023;SDS011;42916;54.346;18.562;2023-05-07T07:53:25;6.80;;;2.90;;
57023;SDS011;42916;54.346;18.562;2023-05-07T07:55:52;6.30;;;3.60;;
57023;SDS011;42916;54.346;18.562;2023-05-07T07:58:20;8.20;;;4.10;;
57023;SDS011;42916;54.346;18.562;2023-05-07T08:00:48;6.20;;;3.60;;
57023;SDS011;42916;54.346;18.562;2023-05-07T08:03:15;4.20;;;2.90;;
57023;SDS011;42916;54.346;18.562;2023-05-07T08:05:45;6.20;;;2.90;;
57023;SDS011;42916;54.346;18.562;2023-05-07T08:08:12;4.60;;;2.90;;
57023;SDS011;42916;54.346;18.562;2023-05-07T08:10:39;5.50;;;3.20;;
57023;SDS011;42916;54.346;18.562;2023-05-07T08:13:11;6.00;;;2.90;;
57023;SDS011;42916;54.346;18.562;2023-05-07T08:15:39;4.20;;;2.90;;
57023;SDS011;42916;54.346;18.562;2023-05-07T08:18:06;3.80;;;2.50;;
57023;SDS011;42916;54.346;18.562;2023-05-07T08:20:33;4.10;;;2.80;;
57023;SDS011;42916;54.346;18.562;2023-05-07T08:23:06;6.30;;;3.30;;
57023;SDS011;42916;54.346;18.562;2023-05-07T08:25:34;4.60;;;3.00;;
57023;SDS011;42916;54.346;18.562;2023-05-07T08:28:01;4.60;;;2.90;;
57023;SDS011;42916;54.346;18.562;2023-05-07T08:30:30;6.90;;;2.90;;
57023;SDS011;42916;54.346;18.562;2023-05-07T08:32:57;7.20;;;3.30;;
57023;SDS011;42916;54.346;18.562;2023-05-07T08:35:23;6.30;;;3.00;;
57023;SDS011;42916;54.346;18.562;2023-05-07T08:37:52;3.70;;;2.60;;
57023;SDS011;42916;54.346;18.562;2023-05-07T08:40:20;3.60;;;2.50;;
57023;SDS011;42916;54.346;18.562;2023-05-07T08:42:52;4.20;;;2.50;;
57023;SDS011;42916;54.346;18.562;2023-05-07T08:45:19;4.80;;;2.80;;
57023;SDS011;42916;54.346;18.562;2023-05-07T08:47:54;3.40;;;2.30;;
57023;SDS011;42916;54.346;18.562;2023-05-07T08:50:26;4.40;;;2.80;;
57023;SDS011;42916;54.346;18.562;2023-05-07T08:52:53;4.30;;;2.60;;
57023;SDS011;42916;54.346;18.562;2023-05-07T08:55:21;6.00;;;2.40;;
57023;SDS011;42916;54.346;18.562;2023-05-07T08:57:49;5.90;;;2.70;;
57023;SDS011;42916;54.346;18.562;2023-05-07T09:00:16;4.40;;;2.40;;
57023;SDS011;42916;54.346;18.562;2023-05-07T09:02:45;4.70;;;2.70;;
57023;SDS011;42916;54.346;18.562;2023-05-07T09:05:11;7.00;;;2.90;;
57023;SDS011;42916;54.346;18.562;2023-05-07T09:07:39;4.20;;;2.50;;
57023;SDS011;42916;54.346;18.562;2023-05-07T09:10:06;3.60;;;2.70;;
57023;SDS011;42916;54.346;18.562;2023-05-07T09:12:35;3.60;;;2.50;;
57023;SDS011;42916;54.346;18.562;2023-05-07T09:15:03;3.10;;;2.80;;
57023;SDS011;42916;54.346;18.562;2023-05-07T09:17:32;6.50;;;3.20;;
57023;SDS011;42916;54.346;18.562;2023-05-07T09:20:04;5.20;;;2.90;;
57023;SDS011;42916;54.346;18.562;2023-05-07T09:22:33;5.50;;;2.90;;
57023;SDS011;42916;54.346;18.562;2023-05-07T09:25:04;3.70;;;2.50;;
57023;SDS011;42916;54.346;18.562;2023-05-07T09:27:32;4.40;;;2.70;;
57023;SDS011;42916;54.346;18.562;2023-05-07T09:30:02;3.60;;;2.50;;
57023;SDS011;42916;54.346;18.562;2023-05-07T09:32:33;5.00;;;2.80;;
57023;SDS011;42916;54.346;18.562;2023-05-07T09:35:01;4.30;;;2.90;;
57023;SDS011;42916;54.346;18.562;2023-05-07T09:37:30;5.50;;;2.80;;
57023;SDS011;42916;54.346;18.562;2023-05-07T09:39:57;4.20;;;2.50;;
57023;SDS011;42916;54.346;18.562;2023-05-07T09:42:25;3.60;;;2.40;;
57023;SDS011;42916;54.346;18.562;2023-05-07T09:44:54;4.90;;;2.80;;
57023;SDS011;42916;54.346;18.562;2023-05-07T09:47:23;2.90;;;2.40;;
57023;SDS011;42916;54.346;18.562;2023-05-07T09:49:55;5.20;;;2.40;;
57023;SDS011;42916;54.346;18.562;2023-05-07T09:52:26;5.30;;;2.60;;
57023;SDS011;42916;54.346;18.562;2023-05-07T09:55:00;3.80;;;2.70;;
57023;SDS011;42916;54.346;18.562;2023-05-07T09:57:30;6.20;;;2.70;;
57023;SDS011;42916;54.346;18.562;2023-05-07T10:00:01;5.90;;;2.60;;
57023;SDS011;42916;54.346;18.562;2023-05-07T10:02:36;3.40;;;2.20;;
57023;SDS011;42916;54.346;18.562;2023-05-07T10:05:03;3.20;;;2.10;;
57023;SDS011;42916;54.346;18.562;2023-05-07T10:07:32;5.00;;;2.40;;
57023;SDS011;42916;54.346;18.562;2023-05-07T10:10:04;3.70;;;2.50;;
57023;SDS011;42916;54.346;18.562;2023-05-07T10:12:36;5.00;;;2.30;;
57023;SDS011;42916;54.346;18.562;2023-05-07T10:15:12;5.40;;;2.40;;
57023;SDS011;42916;54.346;18.562;2023-05-07T10:17:40;6.80;;;2.30;;
57023;SDS011;42916;54.346;18.562;2023-05-07T10:20:08;5.10;;;2.10;;
57023;SDS011;42916;54.346;18.562;2023-05-07T10:22:47;4.00;;;2.40;;
57023;SDS011;42916;54.346;18.562;2023-05-07T10:25:20;6.30;;;2.40;;
57023;SDS011;42916;54.346;18.562;2023-05-07T10:27:50;4.50;;;2.30;;
57023;SDS011;42916;54.346;18.562;2023-05-07T10:30:40;5.20;;;2.50;;
57023;SDS011;42916;54.346;18.562;2023-05-07T10:33:11;3.30;;;2.30;;
57023;SDS011;42916;54.346;18.562;2023-05-07T10:35:43;4.70;;;2.70;;
57023;SDS011;42916;54.346;18.562;2023-05-07T10:38:11;4.90;;;2.60;;
57023;SDS011;42916;54.346;18.562;2023-05-07T10:40:40;3.20;;;2.00;;
57023;SDS011;42916;54.346;18.562;2023-05-07T10:43:08;3.90;;;2.60;;
57023;SDS011;42916;54.346;18.562;2023-05-07T10:45:39;4.80;;;2.80;;
57023;SDS011;42916;54.346;18.562;2023-05-07T10:48:09;4.20;;;2.70;;
57023;SDS011;42916;54.346;18.562;2023-05-07T10:50:38;8.30;;;3.00;;
57023;SDS011;42916;54.346;18.562;2023-05-07T10:58:50;6.40;;;3.40;;
57023;SDS011;42916;54.346;18.562;2023-05-07T11:04:33;5.70;;;2.90;;
57023;SDS011;42916;54.346;18.562;2023-05-07T11:07:21;6.10;;;3.10;;
57023;SDS011;42916;54.346;18.562;2023-05-07T11:15:06;6.90;;;2.80;;
57023;SDS011;42916;54.346;18.562;2023-05-07T11:17:52;5.00;;;3.10;;
57023;SDS011;42916;54.346;18.562;2023-05-07T11:20:44;8.50;;;3.30;;
57023;SDS011;42916;54.346;18.562;2023-05-07T11:26:30;5.10;;;2.50;;
57023;SDS011;42916;54.346;18.562;2023-05-07T11:29:11;4.20;;;2.70;;
57023;SDS011;42916;54.346;18.562;2023-05-07T11:31:39;4.10;;;2.70;;
57023;SDS011;42916;54.346;18.562;2023-05-07T11:34:06;5.70;;;2.60;;
57023;SDS011;42916;54.346;18.562;2023-05-07T11:36:34;4.60;;;3.00;;
57023;SDS011;42916;54.346;18.562;2023-05-07T11:39:26;7.60;;;3.20;;
57023;SDS011;42916;54.346;18.562;2023-05-07T11:41:58;6.40;;;2.80;;
57023;SDS011;42916;54.346;18.562;2023-05-07T11:44:39;6.50;;;3.20;;
57023;SDS011;42916;54.346;18.562;2023-05-07T11:47:10;6.00;;;3.10;;
57023;SDS011;42916;54.346;18.562;2023-05-07T11:49:38;4.00;;;2.70;;
57023;SDS011;42916;54.346;18.562;2023-05-07T11:52:05;4.60;;;2.60;;
57023;SDS011;42916;54.346;18.562;2023-05-07T11:54:35;2.70;;;2.20;;
57023;SDS011;42916;54.346;18.562;2023-05-07T11:57:03;4.80;;;2.40;;
57023;SDS011;42916;54.346;18.562;2023-05-07T11:59:30;6.00;;;2.80;;
57023;SDS011;42916;54.346;18.562;2023-05-07T12:01:57;5.50;;;3.40;;
57023;SDS011;42916;54.346;18.562;2023-05-07T12:04:25;4.10;;;2.20;;
57023;SDS011;42916;54.346;18.562;2023-05-07T12:06:55;3.90;;;2.20;;
57023;SDS011;42916;54.346;18.562;2023-05-07T12:09:25;3.60;;;2.20;;
57023;SDS011;42916;54.346;18.562;2023-05-07T12:11:53;5.70;;;2.50;;
57023;SDS011;42916;54.346;18.562;2023-05-07T12:14:26;5.10;;;2.50;;
57023;SDS011;42916;54.346;18.562;2023-05-07T12:16:54;5.00;;;2.90;;
57023;SDS011;42916;54.346;18.562;2023-05-07T12:19:21;4.50;;;2.50;;
57023;SDS011;42916;54.346;18.562;2023-05-07T12:21:49;5.90;;;2.90;;
57023;SDS011;42916;54.346;18.562;2023-05-07T12:24:15;3.80;;;2.50;;
57023;SDS011;42916;54.346;18.562;2023-05-07T12:26:43;9.90;;;3.00;;
57023;SDS011;42916;54.346;18.562;2023-05-07T12:29:10;3.90;;;2.70;;
57023;SDS011;42916;54.346;18.562;2023-05-07T12:31:39;7.00;;;3.00;;
57023;SDS011;42916;54.346;18.562;2023-05-07T12:34:07;6.40;;;2.70;;
57023;SDS011;42916;54.346;18.562;2023-05-07T12:36:40;6.00;;;3.20;;
57023;SDS011;42916;54.346;18.562;2023-05-07T12:39:07;7.10;;;3.40;;
57023;SDS011;42916;54.346;18.562;2023-05-07T12:41:56;5.20;;;2.90;;
57023;SDS011;42916;54.346;18.562;2023-05-07T12:44:31;3.80;;;2.40;;
57023;SDS011;42916;54.346;18.562;2023-05-07T12:47:01;3.70;;;2.90;;
57023;SDS011;42916;54.346;18.562;2023-05-07T12:49:28;4.50;;;2.80;;
57023;SDS011;42916;54.346;18.562;2023-05-07T12:51:55;5.30;;;2.70;;
57023;SDS011;42916;54.346;18.562;2023-05-07T12:54:32;4.00;;;2.60;;
57023;SDS011;42916;54.346;18.562;2023-05-07T12:57:04;4.90;;;3.40;;
57023;SDS011;42916;54.346;18.562;2023-05-07T12:59:33;6.50;;;2.80;;
57023;SDS011;42916;54.346;18.562;2023-05-07T13:02:01;4.30;;;2.50;;
57023;SDS011;42916;54.346;18.562;2023-05-07T13:04:28;5.20;;;2.70;;
57023;SDS011;42916;54.346;18.562;2023-05-07T13:06:55;3.70;;;2.50;;
57023;SDS011;42916;54.346;18.562;2023-05-07T13:09:22;6.70;;;2.90;;
57023;SDS011;42916;54.346;18.562;2023-05-07T13:11:48;6.10;;;2.80;;
57023;SDS011;42916;54.346;18.562;2023-05-07T13:14:15;4.60;;;2.60;;
57023;SDS011;42916;54.346;18.562;2023-05-07T13:16:42;6.00;;;2.90;;
57023;SDS011;42916;54.346;18.562;2023-05-07T13:19:09;4.00;;;2.50;;
57023;SDS011;42916;54.346;18.562;2023-05-07T13:21:36;4.20;;;2.60;;
57023;SDS011;42916;54.346;18.562;2023-05-07T13:24:03;4.40;;;2.20;;
57023;SDS011;42916;54.346;18.562;2023-05-07T13:26:30;4.20;;;2.80;;
57023;SDS011;42916;54.346;18.562;2023-05-07T13:28:57;7.10;;;2.90;;
57023;SDS011;42916;54.346;18.562;2023-05-07T13:31:24;5.00;;;2.80;;
57023;SDS011;42916;54.346;18.562;2023-05-07T13:33:51;3.80;;;2.60;;
57023;SDS011;42916;54.346;18.562;2023-05-07T13:36:19;5.30;;;2.70;;
57023;SDS011;42916;54.346;18.562;2023-05-07T13:38:46;6.40;;;2.60;;
57023;SDS011;42916;54.346;18.562;2023-05-07T13:41:13;5.20;;;3.00;;
57023;SDS011;42916;54.346;18.562;2023-05-07T13:43:40;4.60;;;2.60;;
57023;SDS011;42916;54.346;18.562;2023-05-07T13:46:07;6.80;;;2.90;;
57023;SDS011;42916;54.346;18.562;2023-05-07T13:48:34;4.20;;;2.60;;
57023;SDS011;42916;54.346;18.562;2023-05-07T13:51:00;5.30;;;2.50;;
57023;SDS011;42916;54.346;18.562;2023-05-07T13:53:27;4.10;;;2.90;;
57023;SDS011;42916;54.346;18.562;2023-05-07T13:55:54;4.60;;;3.00;;
57023;SDS011;42916;54.346;18.562;2023-05-07T13:58:20;5.00;;;3.10;;
57023;SDS011;42916;54.346;18.562;2023-05-07T14:00:47;4.40;;;3.00;;
57023;SDS011;42916;54.346;18.562;2023-05-07T14:03:14;5.80;;;2.90;;
57023;SDS011;42916;54.346;18.562;2023-05-07T14:05:41;4.50;;;2.90;;
57023;SDS011;42916;54.346;18.562;2023-05-07T14:08:08;6.40;;;2.70;;
57023;SDS011;42916;54.346;18.562;2023-05-07T14:10:35;3.70;;;2.70;;
57023;SDS011;42916;54.346;18.562;2023-05-07T14:13:01;4.50;;;2.70;;
57023;SDS011;42916;54.346;18.562;2023-05-07T14:15:28;5.00;;;3.10;;
57023;SDS011;42916;54.346;18.562;2023-05-07T14:17:55;6.60;;;3.10;;
57023;SDS011;42916;54.346;18.562;2023-05-07T14:20:23;3.70;;;2.50;;
57023;SDS011;42916;54.346;18.562;2023-05-07T14:22:50;4.40;;;3.10;;
57023;SDS011;42916;54.346;18.562;2023-05-07T14:25:17;5.80;;;3.10;;
57023;SDS011;42916;54.346;18.562;2023-05-07T14:27:45;7.20;;;3.40;;
57023;SDS011;42916;54.346;18.562;2023-05-07T14:30:12;5.30;;;2.90;;
57023;SDS011;42916;54.346;18.562;2023-05-07T14:32:39;5.50;;;3.50;;
57023;SDS011;42916;54.346;18.562;2023-05-07T14:35:06;5.30;;;3.80;;
57023;SDS011;42916;54.346;18.562;2023-05-07T14:37:32;7.60;;;3.60;;
57023;SDS011;42916;54.346;18.562;2023-05-07T14:39:59;6.50;;;3.40;;
57023;SDS011;42916;54.346;18.562;2023-05-07T14:42:26;6.70;;;3.80;;
57023;SDS011;42916;54.346;18.562;2023-05-07T14:44:53;7.60;;;3.70;;
57023;SDS011;42916;54.346;18.562;2023-05-07T14:47:19;7.50;;;3.80;;
57023;SDS011;42916;54.346;18.562;2023-05-07T14:49:46;4.90;;;3.10;;
57023;SDS011;42916;54.346;18.562;2023-05-07T14:52:13;6.50;;;4.20;;
57023;SDS011;42916;54.346;18.562;2023-05-07T14:54:40;7.50;;;3.50;;